Airfield :
LOGIN :

Register | Disclaimer

   EN    FR    IT 

 










Legend :    VFR   Marginal VFR   IFR   Intensive IFR   Very Intensive IFR
Visi :
Ceiling :
>= 8 km
>= 3000ft
5 to 8 km
1000 to 3000 ft
1500m to 5 km
500 to 1000 ft
800 to 1500m
200 to 500 ft
< 800m
< 200 ft
Symbols :   Thunderstorms  Fog  Heavy snow  Heavy precipitations  Wind > 20 kt
SIGMETs :     Misc.  Thunderstorms  Icing  Turbulence  Mountain Waves  Volcanic Ashes






- Airport Elevation : 348 ft
- IATA code : LDV


LFRJ - Landivisiau

CURRENT METAR :
  • 050830Z AUTO 18013KT 4500 -DZ BR OVC005 16/15 Q1005 TEMPO 18015G25KT 2000 RADZ

EXPIRED METARs :
  • 050800Z AUTO 19012KT 5000 -DZ BR OVC005 15/14 Q1005 TEMPO 19015G25KT 2000 RADZ
  • 050730Z AUTO 19014KT 4300 -DZ BR OVC005 15/14 Q1006 TEMPO 19015G25KT 2000 RADZ
  • 050700Z AUTO 19013KT 5000 -RA BR BKN005 BKN036 OVC046 15/14 Q1006 TEMPO 19015G25KT 2000 RADZ
  • 050630Z AUTO 20011KT 9999 BKN008 BKN021 BKN032 14/13 Q1007 TEMPO 19015G25KT 2000 RADZ OVC003
  • 050600Z AUTO 21017KT 8000 -RA BKN008 BKN013 OVC018 15/14 Q1007 TEMPO 19015G25KT 4000 RA BKN012

TAF TAF LFRJ
Valid from the 05 at 09:00 until the 05 at 18:00 UTC


050800Z 0509/0518 18010KT 6000 OVC008
TEMPO 0509/0511 18015G25KT 2000 RADZ OVC003
BECMG 0511/0513 24015KT BKN020
TEMPO 0512/0515 24020G30KT 4000 SHRA BKN008



MET'MAP, your aeronautical weather chart ! - Copyright ORBIFLY December 2007 - Disclaimer

ORBIFLY MET'MAP TEAM :

Programming & Development : Alexandra Zaïnal
Concept & original design : Baudouin d'Aumeries
Assistance for programming : Marc-Olivier Méhu
Technical & hardware support : Manuel Goepfert

Contact : metmap@orbifly.com




SOURCES & CREDITS :

   NOAA